Valle Toledo, Valles Caldera, New Mexico Weather observations

Data are for 10 minute period ending at time listed.
 Day   Time   Solar   Ave.   Ave.  Ave.  Vector  Max.   Baro.   Total    
  of    of     Rad.   Air    Rel.  Wind   Wind   Wind  Press.  Precip.   
Year   Day            Temp.  Hum.  Speed  Dir.   Gust                    
2017   (MST)  Kw/m2    F      %     mph   deg.    mph    mb.     in.     
-------------------------------------------------------------------------
 173    9:30   0.75   76.3    21    5.5   235     9.0   733.8    0.00 
 173    9:40   0.78   76.9    20    6.1   247    10.8   733.8    0.00 
 173    9:50   0.66   77.1    20    6.0   233    10.2   733.7    0.00 
 173   10:00   0.66   77.5    20    7.1   244    13.7   733.8    0.00 
 173   10:10   0.11   75.5    21    5.8   267    10.2   733.9    0.00 
 173   10:20   0.21   74.4    22    3.7   287     7.8   733.9    0.00 
 173   10:30   0.46   76.5    20    5.0   250     9.0   733.9    0.00 
 173   10:40   0.14   75.0    20    5.0   246    10.2   734.0    0.00 
 173   10:50   0.22   73.7    23    4.7   250     9.0   734.1    0.00 
 173   11:00   0.65   73.2    28    3.0   189     7.2   734.0    0.00 
 173   11:10   0.61   76.8    21    4.9   220    10.8   733.9    0.00 
 173   11:20   0.14   75.5    21    4.5   230     9.0   733.8    0.00 
 173   11:30   0.31   74.4    22    2.2   215     6.0   733.8    0.00 
 173   11:40   -8190.00   77.8    21    4.5   231    11.3   733.7    0.00 
 173   11:50   0.10   75.1    22    9.2   257    22.1   733.8    0.00 
 173   12:00   0.14   67.3    45    4.8    53    15.5   734.1    0.01 
 173   12:10   0.63   66.0    52    2.9    45     6.0   734.1    0.00 
 173   12:20   0.62   72.3    33    3.8    97     6.6   734.0    0.00 
 173   12:30   0.66   75.7    27    2.6   275     4.8   733.8    0.00 
 173   12:40   0.17   76.7    23    3.2   333     6.0   733.7    0.00 
 173   12:50   0.25   75.3    23    4.5   301     8.4   733.6    0.00 
 173   13:00   0.44   74.8    24    2.9   263     7.2   733.5    0.00 
 173   13:10   0.83   77.4    21    3.6   258     8.4   733.3    0.00 
 173   13:20   0.80   79.9    18    7.0   285    19.7   733.2    0.00 
 173   13:30   0.81   81.9    14    9.3   299    21.5   733.0    0.00 
 173   13:40   0.58   80.7    15    9.0   276    17.3   732.9    0.00 
 173   13:50   0.17   77.4    16    5.8   222    12.5   732.7    0.00 
 173   14:00   0.84   78.9    15    7.4   279    13.1   732.9    0.00 
 173   14:10   0.61   82.1    13    6.7   267    13.1   732.6    0.00 
 173   14:20   0.23   79.8    14    7.2   296    14.9   732.5    0.00 
 173   14:30   0.19   78.1    15    5.9   276    11.9   732.5    0.00 
 173   14:40   0.52   79.0    14    7.2   292    13.1   732.6    0.00 
 173   14:50   0.33   79.8    13    8.8   284    16.1   732.6    0.00 
 173   15:00   0.42   78.7    13    8.8   300    16.7   732.6    0.00 
 173   15:10   0.83   81.9    12    9.7   285    16.1   732.5    0.00 
 173   15:20   0.76   82.1    12   10.1   252    19.7   732.3    0.00 
 173   15:30   0.74   83.2    12   10.3   288    22.7   732.1    0.00 
 173   15:40   0.58   83.0    11   10.9   295    21.5   732.1    0.00 
 173   15:50   0.44   82.0    11    8.2   282    15.5   732.1    0.00 
 173   16:00   0.55   80.7    12    8.7   283    17.9   732.0    0.00 
 173   16:10   0.61   83.5    12   10.2   304    20.3   732.0    0.00 
 173   16:20   0.46   82.9    12   10.5   308    22.7   731.9    0.00 
 173   16:30   0.55   83.3    12    7.4   296    14.3   731.9    0.00 
 173   16:40   0.49   83.1    11    8.6   297    15.5   731.8    0.00 
 173   16:50   0.45   81.7    12    9.1   266    17.3   731.8    0.00 
 173   17:00   0.42   81.0    12    8.1   260    14.3   731.7    0.00 
 173   17:10   0.39   80.9    12    8.8   262    16.7   731.8    0.00 
 173   17:20   0.20   79.8    12   10.8   294    18.5   731.7    0.00 
 173   17:30   0.30   80.0    12   10.4   299    15.5   731.8    0.00 
 173   17:40   0.29   80.6    12    9.2   294    18.5   731.8    0.00 
 173   17:50   0.22   80.3    11    8.0   276    14.9   731.9    0.00 
 173   18:00   0.22   79.4    12    8.4   285    14.9   731.9    0.00 
 173   18:10   0.18   79.6    12    8.7   300    16.1   731.8    0.00 
 173   18:20   0.12   79.1    12    8.1   312    16.7   731.8    0.00 
 173   18:30   0.10   77.1    12    9.8   297    17.9   731.9    0.00 
 173   18:40   0.10   77.5    12    7.7   304    13.1   732.0    0.00 
 173   18:50   0.07   77.1    12    5.9   307     9.6   732.0    0.00 
 173   19:00   0.05   76.2    12    6.0   314    11.3   732.1    0.00 
 173   19:10   0.02   74.2    13    6.6   317    11.3   732.3    0.00 
 173   19:20   0.01   72.4    14    5.7   332     8.4   732.4    0.00 
 173   19:30   0.00   71.3    13    6.6   331    11.3   732.5    0.00 
 173   19:40   0.00   71.3    12    6.5   326    12.5   732.6    0.00 
 173   19:50   0.00   70.2    12    5.3   346     8.4   732.7    0.00 
 173   20:00   0.00   69.0    13    5.3   347     7.8   732.8    0.00 
 173   20:10   0.00   68.5    12    5.8   341     9.0   732.9    0.00 
 173   20:20   0.00   68.6    12    5.4   345     9.0   733.0    0.00 
 173   20:30   0.00   68.4    12    5.6   335     8.4   733.0    0.00 
 173   20:40   0.00   68.5    11    5.9   339    11.3   733.1    0.00 
 173   20:50   0.00   68.2    11    5.3   333     9.0   733.2    0.00 
 173   21:00   0.00   67.8    11    4.9   330     9.6   733.3    0.00 
 173   21:10   0.00   67.5    11    5.0   338     7.2   733.3    0.00 
 173   21:20   0.00   67.2    11    5.0   340     7.8   733.4    0.00 
 173   21:30   0.00   67.3    11    5.3   342     8.4   733.4    0.00 
 173   21:40   0.00   67.4    11    5.4   345     9.0   733.5    0.00 
 173   21:50   0.00   67.2    11    5.4   342     9.0   733.5    0.00 
 173   22:00   0.00   67.4    10    6.1   329    10.8   733.5    0.00 
 173   22:10   0.00   67.4    10    6.1   338    10.8   733.4    0.00 
 173   22:20   0.00   67.2    10    4.2   321     7.2   733.3    0.00 
 173   22:30   0.00   64.2    13    2.6    58     6.0   733.4    0.00 
 173   22:40   0.00   63.3    12    3.1   340     6.6   733.4    0.00 
 173   22:50   0.00   63.8    12    4.4   359     7.8   733.4    0.00 
 173   23:00   0.00   64.4    12    4.5     1     9.0   733.5    0.00 
 173   23:10   0.00   63.0    13    2.8    32     7.8   733.5    0.00 
 173   23:20   0.00   63.4    12    5.1   347     9.0   733.5    0.00 
 173   23:30   0.00   62.8    13    3.3     4     6.0   733.4    0.00 
 173   23:40   0.00   63.2    12    5.1   358     8.4   733.3    0.00 
 173   23:50   0.00   63.7    12    5.0     4     7.8   733.3    0.00 
 174    0:00   0.00   63.2    13    3.5   347     7.2   733.3    0.00 
 174    0:10   0.00   62.7    13    5.1   357     9.0   733.3    0.00 
 174    0:20   0.00   63.4    13    4.3     7     8.4   733.3    0.00 
 174    0:30   0.00   62.2    15    2.6    64     6.0   733.3    0.00 
 174    0:40   0.00   60.1    17    3.3    40     6.0   733.2    0.00 
 174    0:50   0.00   59.0    17    2.3   106     3.6   733.2    0.00 
 174    1:00   0.00   58.1    18    2.2   109     3.6   733.2    0.00 
 174    1:10   0.00   58.4    17    3.1    75     4.2   733.1    0.00 
 174    1:20   0.00   59.0    17    3.3    70     4.2   733.1    0.00 
 174    1:30   0.00   58.3    18    2.8    62     4.2   733.1    0.00 
 174    1:40   0.00   57.9    18    2.5    66     4.2   733.1    0.00 
 174    1:50   0.00   57.7    19    2.8    42     4.8   733.1    0.00 
 174    2:00   0.00   56.7    19    2.7    38     4.8   733.1    0.00 
 174    2:10   0.00   56.3    20    3.5    40     5.4   733.1    0.00 
 174    2:20   0.00   56.2    20    3.8    33     6.0   733.2    0.00 
 174    2:30   0.00   56.4    20    3.2    41     4.8   733.1    0.00 
 174    2:40   0.00   56.6    21    1.9    42     3.6   733.2    0.00 
 174    2:50   0.00   56.1    21    1.9    30     4.2   733.2    0.00 
 174    3:00   0.00   56.2    20    2.6    67     4.2   733.2    0.00 
 174    3:10   0.00   55.9    21    2.7    37     4.2   733.1    0.00 
 174    3:20   0.00   55.3    22    2.5    25     4.2   733.1    0.00 
 174    3:30   0.00   54.3    22    2.3     4     3.6   733.2    0.00 
 174    3:40   0.00   53.6    23    3.6    40     4.8   733.2    0.00 
 174    3:50   0.00   54.1    23    3.7    39     4.8   733.3    0.00 
 174    4:00   0.00   54.5    23    1.9    47     3.6   733.4    0.00 
 174    4:10   0.00   54.5    23    1.4    54     3.0   733.4    0.00 
 174    4:20   0.00   54.2    23    1.6    66     4.2   733.4    0.00 
 174    4:30   0.00   54.3    23    2.0    71     4.8   733.6    0.00 
 174    4:40   0.00   54.8    22    2.3    48     3.6   733.7    0.00 
 174    4:50   0.00   54.4    23    2.1    53     3.6   733.8    0.00 
 174    5:00   0.00   53.9    23    1.7    56     3.0   733.9    0.00 
 174    5:10   0.01   53.9    23    2.3    51     4.2   733.9    0.00 
 174    5:20   0.02   54.5    22    1.9    70     3.0   734.0    0.00 
 174    5:30   0.03   54.8    22    1.5    56     3.0   734.1    0.00 
 174    5:40   0.04   54.8    23    2.5    49     4.8   734.2    0.00 
 174    5:50   0.05   54.7    25    1.6    92     4.8   734.3    0.00 
 174    6:00   0.06   54.9    26    2.5    86     4.2   734.3    0.00 
 174    6:10   0.07   55.5    26    2.7    77     3.6   734.4    0.00 
 174    6:20   0.11   56.1    26    2.6    67     3.6   734.4    0.00 
 174    6:30   0.13   57.1    25    2.5    73     3.6   734.4    0.00 
 174    6:40   0.17   58.1    26    2.7    69     4.2   734.6    0.00 
 174    6:50   0.20   59.2    26    2.7    63     3.6   734.7    0.00 
 174    7:00   0.23   61.1    26    2.3    52     3.6   734.7    0.00 
 174    7:10   0.28   63.0    26    1.9    50     3.0   734.8    0.00 
 174    7:20   0.32   64.7    30    1.6   150     3.0   734.8    0.00 
 174    7:30   0.36   65.5    28    1.3   120     3.0   734.8    0.00 
 174    7:40   0.41   68.2    26    1.2   272     2.4   734.9    0.00 
 174    7:50   0.42   70.0    22    1.1   191     2.4   735.0    0.00 
 174    8:00   0.49   71.3    20    2.2   281     4.2   735.2    0.00 
 174    8:10   0.56   71.2    20    3.9   277     7.2   735.2    0.00 
 174    8:20   0.60   71.1    19    3.8   261     6.6   735.2    0.00 
 174    8:30   0.64   71.5    17    5.4   252    11.3   735.1    0.00 
 174    8:40   0.67   73.2    13    8.6   281    17.3   735.1    0.00 
 174    8:50   0.69   74.4    11   10.7   289    22.7   735.0    0.00 
 174    9:00   0.72   75.0    10   10.4   287    17.9   735.0    0.00 
 174    9:10   0.74   75.5     9   10.8   290    19.1   735.0    0.00 
 174    9:20   0.77   75.6     9    9.0   282    19.1   735.1    0.00 

Return to Valle Toledo, Valles Caldera graphs page.


Western Regional Climate Center,wrcc@dri.edu